sensor_id;sensor_type;location;lat;lon;timestamp;temperature;humidity
37310;DHT22;23195;47.744;7.358;2023-07-24T05:22:13;20.60;99.90
37310;DHT22;23195;47.744;7.358;2023-07-24T05:24:39;20.60;99.90
37310;DHT22;23195;47.744;7.358;2023-07-24T05:27:05;20.70;99.90
37310;DHT22;23195;47.744;7.358;2023-07-24T05:29:31;20.70;99.90
37310;DHT22;23195;47.744;7.358;2023-07-24T05:31:57;20.90;99.90
37310;DHT22;23195;47.744;7.358;2023-07-24T05:34:24;21.00;99.90
37310;DHT22;23195;47.744;7.358;2023-07-24T05:36:50;21.10;99.90
37310;DHT22;23195;47.744;7.358;2023-07-24T05:39:16;20.80;99.90
37310;DHT22;23195;47.744;7.358;2023-07-24T05:41:42;21.20;99.90
37310;DHT22;23195;47.744;7.358;2023-07-24T05:44:08;21.30;99.90
37310;DHT22;23195;47.744;7.358;2023-07-24T05:46:34;21.40;99.90
37310;DHT22;23195;47.744;7.358;2023-07-24T05:48:59;21.40;99.90
37310;DHT22;23195;47.744;7.358;2023-07-24T05:51:27;21.40;99.90
37310;DHT22;23195;47.744;7.358;2023-07-24T05:53:53;21.40;99.90
37310;DHT22;23195;47.744;7.358;2023-07-24T05:56:19;21.40;99.90
37310;DHT22;23195;47.744;7.358;2023-07-24T05:58:44;21.50;99.90
37310;DHT22;23195;47.744;7.358;2023-07-24T06:01:10;20.60;99.90
37310;DHT22;23195;47.744;7.358;2023-07-24T06:03:36;21.80;99.90
37310;DHT22;23195;47.744;7.358;2023-07-24T06:06:04;22.10;99.90
37310;DHT22;23195;47.744;7.358;2023-07-24T06:08:31;22.10;99.90
37310;DHT22;23195;47.744;7.358;2023-07-24T06:10:57;22.10;99.90
37310;DHT22;23195;47.744;7.358;2023-07-24T06:13:23;22.20;99.90
37310;DHT22;23195;47.744;7.358;2023-07-24T06:15:49;22.20;99.90
37310;DHT22;23195;47.744;7.358;2023-07-24T06:18:15;22.00;99.90
37310;DHT22;23195;47.744;7.358;2023-07-24T06:20:41;21.80;99.90
37310;DHT22;23195;47.744;7.358;2023-07-24T06:23:07;21.70;99.90
37310;DHT22;23195;47.744;7.358;2023-07-24T06:25:33;21.60;99.90
37310;DHT22;23195;47.744;7.358;2023-07-24T06:28:09;21.60;99.90
37310;DHT22;23195;47.744;7.358;2023-07-24T06:30:35;21.70;99.90
37310;DHT22;23195;47.744;7.358;2023-07-24T06:33:01;21.70;99.90
37310;DHT22;23195;47.744;7.358;2023-07-24T06:35:38;21.80;99.90
37310;DHT22;23195;47.744;7.358;2023-07-24T06:38:27;21.90;99.90
37310;DHT22;23195;47.744;7.358;2023-07-24T06:40:56;22.10;99.90
37310;DHT22;23195;47.744;7.358;2023-07-24T06:46:59;22.10;99.90
37310;DHT22;23195;47.744;7.358;2023-07-24T06:50:03;22.40;99.90
37310;DHT22;23195;47.744;7.358;2023-07-24T06:52:53;21.90;99.90
37310;DHT22;23195;47.744;7.358;2023-07-24T06:55:35;22.60;99.90
37310;DHT22;23195;47.744;7.358;2023-07-24T06:58:15;23.00;99.90
37310;DHT22;23195;47.744;7.358;2023-07-24T07:00:50;23.50;99.90
37310;DHT22;23195;47.744;7.358;2023-07-24T07:03:55;23.70;99.90
37310;DHT22;23195;47.744;7.358;2023-07-24T07:06:43;23.60;99.90
37310;DHT22;23195;47.744;7.358;2023-07-24T07:09:20;23.30;99.90
37310;DHT22;23195;47.744;7.358;2023-07-24T07:11:48;23.00;99.90
37310;DHT22;23195;47.744;7.358;2023-07-24T07:14:14;22.90;99.90
37310;DHT22;23195;47.744;7.358;2023-07-24T07:16:40;22.70;99.90
37310;DHT22;23195;47.744;7.358;2023-07-24T07:19:06;22.60;99.90
37310;DHT22;23195;47.744;7.358;2023-07-24T07:21:35;22.30;99.90
37310;DHT22;23195;47.744;7.358;2023-07-24T07:24:01;22.20;99.90
37310;DHT22;23195;47.744;7.358;2023-07-24T07:26:27;22.00;99.90
37310;DHT22;23195;47.744;7.358;2023-07-24T07:28:55;21.80;99.90
37310;DHT22;23195;47.744;7.358;2023-07-24T07:31:21;21.70;99.90
37310;DHT22;23195;47.744;7.358;2023-07-24T07:33:47;21.70;99.90
37310;DHT22;23195;47.744;7.358;2023-07-24T07:36:13;21.70;99.90
37310;DHT22;23195;47.744;7.358;2023-07-24T07:38:41;21.80;99.90
37310;DHT22;23195;47.744;7.358;2023-07-24T07:41:07;21.90;99.90
37310;DHT22;23195;47.744;7.358;2023-07-24T07:43:33;22.00;99.90
37310;DHT22;23195;47.744;7.358;2023-07-24T07:46:02;22.00;99.90
37310;DHT22;23195;47.744;7.358;2023-07-24T07:48:28;22.00;99.90
37310;DHT22;23195;47.744;7.358;2023-07-24T07:50:59;21.80;99.90
37310;DHT22;23195;47.744;7.358;2023-07-24T07:53:25;21.70;99.90
37310;DHT22;23195;47.744;7.358;2023-07-24T07:55:58;21.50;99.90
37310;DHT22;23195;47.744;7.358;2023-07-24T07:58:25;21.60;99.90
37310;DHT22;23195;47.744;7.358;2023-07-24T08:00:51;21.60;99.90
37310;DHT22;23195;47.744;7.358;2023-07-24T08:03:17;21.60;99.90
37310;DHT22;23195;47.744;7.358;2023-07-24T08:05:45;21.80;99.90
37310;DHT22;23195;47.744;7.358;2023-07-24T08:08:11;22.00;99.90
37310;DHT22;23195;47.744;7.358;2023-07-24T08:10:38;22.20;99.90
37310;DHT22;23195;47.744;7.358;2023-07-24T08:13:04;22.50;99.90
37310;DHT22;23195;47.744;7.358;2023-07-24T08:15:35;22.70;99.90
37310;DHT22;23195;47.744;7.358;2023-07-24T08:18:04;22.80;99.90
37310;DHT22;23195;47.744;7.358;2023-07-24T08:20:30;22.70;99.90
37310;DHT22;23195;47.744;7.358;2023-07-24T08:22:56;22.50;99.90
37310;DHT22;23195;47.744;7.358;2023-07-24T08:25:23;22.40;99.90
37310;DHT22;23195;47.744;7.358;2023-07-24T08:27:48;22.20;99.90
37310;DHT22;23195;47.744;7.358;2023-07-24T08:30:18;22.10;99.90
37310;DHT22;23195;47.744;7.358;2023-07-24T08:32:44;22.10;99.90
37310;DHT22;23195;47.744;7.358;2023-07-24T08:35:10;22.20;99.90
37310;DHT22;23195;47.744;7.358;2023-07-24T08:37:35;22.20;99.90
37310;DHT22;23195;47.744;7.358;2023-07-24T08:40:04;22.00;99.90
37310;DHT22;23195;47.744;7.358;2023-07-24T08:42:31;22.30;99.90
37310;DHT22;23195;47.744;7.358;2023-07-24T08:44:59;21.70;99.90
37310;DHT22;23195;47.744;7.358;2023-07-24T08:47:25;21.60;99.90
37310;DHT22;23195;47.744;7.358;2023-07-24T08:49:52;21.40;99.90
37310;DHT22;23195;47.744;7.358;2023-07-24T08:52:19;21.30;99.90
37310;DHT22;23195;47.744;7.358;2023-07-24T08:54:45;20.60;99.90
37310;DHT22;23195;47.744;7.358;2023-07-24T08:57:15;19.00;99.90
37310;DHT22;23195;47.744;7.358;2023-07-24T08:59:51;17.80;99.90
37310;DHT22;23195;47.744;7.358;2023-07-24T09:02:33;17.10;99.90
37310;DHT22;23195;47.744;7.358;2023-07-24T09:05:00;16.80;99.90
37310;DHT22;23195;47.744;7.358;2023-07-24T09:07:26;16.60;99.90
37310;DHT22;23195;47.744;7.358;2023-07-24T09:09:52;16.70;99.90
37310;DHT22;23195;47.744;7.358;2023-07-24T09:12:19;16.70;99.90
37310;DHT22;23195;47.744;7.358;2023-07-24T09:14:44;16.70;99.90
37310;DHT22;23195;47.744;7.358;2023-07-24T09:17:11;16.70;99.90
37310;DHT22;23195;47.744;7.358;2023-07-24T09:19:38;16.70;99.90
37310;DHT22;23195;47.744;7.358;2023-07-24T09:22:12;16.70;99.90
37310;DHT22;23195;47.744;7.358;2023-07-24T09:24:53;16.60;99.90
37310;DHT22;23195;47.744;7.358;2023-07-24T09:27:21;16.50;99.90
37310;DHT22;23195;47.744;7.358;2023-07-24T09:29:49;16.50;99.90
37310;DHT22;23195;47.744;7.358;2023-07-24T09:32:23;16.60;99.90
37310;DHT22;23195;47.744;7.358;2023-07-24T09:34:50;16.60;99.90
37310;DHT22;23195;47.744;7.358;2023-07-24T09:37:35;16.60;99.90
37310;DHT22;23195;47.744;7.358;2023-07-24T09:40:04;16.60;99.90
37310;DHT22;23195;47.744;7.358;2023-07-24T09:42:36;16.70;99.90
37310;DHT22;23195;47.744;7.358;2023-07-24T09:45:04;16.80;99.90
37310;DHT22;23195;47.744;7.358;2023-07-24T09:47:30;16.80;99.90
37310;DHT22;23195;47.744;7.358;2023-07-24T09:49:57;16.80;99.90
37310;DHT22;23195;47.744;7.358;2023-07-24T09:52:24;16.90;99.90
37310;DHT22;23195;47.744;7.358;2023-07-24T09:54:59;17.00;99.90
37310;DHT22;23195;47.744;7.358;2023-07-24T09:57:26;17.00;99.90
37310;DHT22;23195;47.744;7.358;2023-07-24T09:59:53;17.00;99.90
37310;DHT22;23195;47.744;7.358;2023-07-24T10:02:20;17.00;99.90
37310;DHT22;23195;47.744;7.358;2023-07-24T10:04:46;17.20;99.90
37310;DHT22;23195;47.744;7.358;2023-07-24T10:07:13;17.40;99.90
37310;DHT22;23195;47.744;7.358;2023-07-24T10:09:44;17.70;99.90
37310;DHT22;23195;47.744;7.358;2023-07-24T10:12:10;18.20;99.90
37310;DHT22;23195;47.744;7.358;2023-07-24T10:14:37;18.60;99.90
37310;DHT22;23195;47.744;7.358;2023-07-24T10:17:06;18.90;99.90
37310;DHT22;23195;47.744;7.358;2023-07-24T10:19:36;19.20;99.90
37310;DHT22;23195;47.744;7.358;2023-07-24T10:22:05;19.60;99.90
37310;DHT22;23195;47.744;7.358;2023-07-24T10:24:33;20.00;99.90
37310;DHT22;23195;47.744;7.358;2023-07-24T10:26:59;20.40;99.90
37310;DHT22;23195;47.744;7.358;2023-07-24T10:29:25;20.60;99.90
37310;DHT22;23195;47.744;7.358;2023-07-24T10:31:54;21.10;99.90
37310;DHT22;23195;47.744;7.358;2023-07-24T10:34:20;21.30;99.90
37310;DHT22;23195;47.744;7.358;2023-07-24T10:37:01;21.50;99.90
37310;DHT22;23195;47.744;7.358;2023-07-24T10:39:37;21.80;99.90
37310;DHT22;23195;47.744;7.358;2023-07-24T10:42:10;22.10;99.90
37310;DHT22;23195;47.744;7.358;2023-07-24T10:44:37;22.50;99.90
37310;DHT22;23195;47.744;7.358;2023-07-24T10:47:03;22.80;99.90
37310;DHT22;23195;47.744;7.358;2023-07-24T10:49:34;22.80;99.90
37310;DHT22;23195;47.744;7.358;2023-07-24T10:52:00;23.10;99.90
37310;DHT22;23195;47.744;7.358;2023-07-24T10:54:26;23.30;99.90
37310;DHT22;23195;47.744;7.358;2023-07-24T10:57:01;23.50;99.90
37310;DHT22;23195;47.744;7.358;2023-07-24T10:59:38;23.40;99.90
37310;DHT22;23195;47.744;7.358;2023-07-24T11:02:04;23.00;99.90
37310;DHT22;23195;47.744;7.358;2023-07-24T11:04:30;22.80;99.90
37310;DHT22;23195;47.744;7.358;2023-07-24T11:06:56;22.80;99.90
37310;DHT22;23195;47.744;7.358;2023-07-24T11:09:33;22.80;99.90
37310;DHT22;23195;47.744;7.358;2023-07-24T11:11:59;22.40;99.90
37310;DHT22;23195;47.744;7.358;2023-07-24T11:14:25;22.20;99.90
37310;DHT22;23195;47.744;7.358;2023-07-24T11:16:51;22.70;99.90
37310;DHT22;23195;47.744;7.358;2023-07-24T11:19:24;22.90;99.90
37310;DHT22;23195;47.744;7.358;2023-07-24T11:21:51;23.10;99.90
37310;DHT22;23195;47.744;7.358;2023-07-24T11:24:18;23.30;99.90
37310;DHT22;23195;47.744;7.358;2023-07-24T11:26:44;23.40;99.90
37310;DHT22;23195;47.744;7.358;2023-07-24T11:29:13;23.40;99.90
37310;DHT22;23195;47.744;7.358;2023-07-24T11:31:39;23.00;99.90
37310;DHT22;23195;47.744;7.358;2023-07-24T11:34:05;22.80;99.90
37310;DHT22;23195;47.744;7.358;2023-07-24T11:36:32;22.80;99.90
37310;DHT22;23195;47.744;7.358;2023-07-24T11:39:00;22.60;99.90
37310;DHT22;23195;47.744;7.358;2023-07-24T11:41:27;22.50;99.90
37310;DHT22;23195;47.744;7.358;2023-07-24T11:43:53;22.80;99.90
37310;DHT22;23195;47.744;7.358;2023-07-24T11:46:29;23.10;99.90
37310;DHT22;23195;47.744;7.358;2023-07-24T11:49:00;23.10;99.90
37310;DHT22;23195;47.744;7.358;2023-07-24T11:51:26;23.10;99.90
37310;DHT22;23195;47.744;7.358;2023-07-24T11:53:52;23.40;99.90
37310;DHT22;23195;47.744;7.358;2023-07-24T11:56:19;23.50;99.90
37310;DHT22;23195;47.744;7.358;2023-07-24T11:58:45;23.50;99.90
37310;DHT22;23195;47.744;7.358;2023-07-24T12:01:12;23.30;99.90
37310;DHT22;23195;47.744;7.358;2023-07-24T12:03:43;23.10;99.90
37310;DHT22;23195;47.744;7.358;2023-07-24T12:06:18;22.90;99.90
37310;DHT22;23195;47.744;7.358;2023-07-24T12:08:48;22.80;99.90
37310;DHT22;23195;47.744;7.358;2023-07-24T12:11:26;22.90;99.90
37310;DHT22;23195;47.744;7.358;2023-07-24T12:13:52;23.10;99.90
37310;DHT22;23195;47.744;7.358;2023-07-24T12:16:19;23.40;99.90
37310;DHT22;23195;47.744;7.358;2023-07-24T12:18:48;23.60;99.90
37310;DHT22;23195;47.744;7.358;2023-07-24T12:21:16;23.70;99.90
37310;DHT22;23195;47.744;7.358;2023-07-24T12:23:42;23.90;99.90
37310;DHT22;23195;47.744;7.358;2023-07-24T12:26:08;24.10;99.90
37310;DHT22;23195;47.744;7.358;2023-07-24T12:28:34;24.40;99.90
37310;DHT22;23195;47.744;7.358;2023-07-24T12:30:59;24.20;99.90
37310;DHT22;23195;47.744;7.358;2023-07-24T12:33:27;23.90;99.90
37310;DHT22;23195;47.744;7.358;2023-07-24T12:35:53;23.60;99.90
37310;DHT22;23195;47.744;7.358;2023-07-24T12:38:19;23.30;99.90
37310;DHT22;23195;47.744;7.358;2023-07-24T12:40:45;23.10;99.90
37310;DHT22;23195;47.744;7.358;2023-07-24T12:43:11;22.70;99.90
37310;DHT22;23195;47.744;7.358;2023-07-24T12:45:36;22.30;99.90
37310;DHT22;23195;47.744;7.358;2023-07-24T12:48:02;22.10;99.90
37310;DHT22;23195;47.744;7.358;2023-07-24T12:50:30;22.10;99.90
37310;DHT22;23195;47.744;7.358;2023-07-24T12:52:56;22.00;99.90
37310;DHT22;23195;47.744;7.358;2023-07-24T12:55:22;22.00;99.90
37310;DHT22;23195;47.744;7.358;2023-07-24T12:57:48;22.20;99.90
37310;DHT22;23195;47.744;7.358;2023-07-24T13:00:14;21.80;99.90
37310;DHT22;23195;47.744;7.358;2023-07-24T13:02:43;21.60;99.90
37310;DHT22;23195;47.744;7.358;2023-07-24T13:05:08;20.90;99.90
37310;DHT22;23195;47.744;7.358;2023-07-24T13:07:34;21.40;99.90
37310;DHT22;23195;47.744;7.358;2023-07-24T13:10:09;21.40;99.90
37310;DHT22;23195;47.744;7.358;2023-07-24T13:12:50;21.50;99.90
37310;DHT22;23195;47.744;7.358;2023-07-24T13:15:16;20.00;99.90
37310;DHT22;23195;47.744;7.358;2023-07-24T13:17:45;21.40;99.90
37310;DHT22;23195;47.744;7.358;2023-07-24T13:20:11;21.30;99.90
37310;DHT22;23195;47.744;7.358;2023-07-24T13:22:37;21.30;99.90
37310;DHT22;23195;47.744;7.358;2023-07-24T13:25:03;21.10;99.90
37310;DHT22;23195;47.744;7.358;2023-07-24T13:27:32;21.20;99.90
37310;DHT22;23195;47.744;7.358;2023-07-24T13:29:59;21.30;99.90
37310;DHT22;23195;47.744;7.358;2023-07-24T13:32:28;21.40;99.90
37310;DHT22;23195;47.744;7.358;2023-07-24T13:34:55;21.50;99.90
37310;DHT22;23195;47.744;7.358;2023-07-24T13:37:22;21.80;99.90
37310;DHT22;23195;47.744;7.358;2023-07-24T13:39:50;22.10;99.90
37310;DHT22;23195;47.744;7.358;2023-07-24T13:42:16;22.20;99.90
37310;DHT22;23195;47.744;7.358;2023-07-24T13:44:42;22.30;99.90
37310;DHT22;23195;47.744;7.358;2023-07-24T13:47:08;22.50;99.90
37310;DHT22;23195;47.744;7.358;2023-07-24T13:49:34;22.70;99.90
37310;DHT22;23195;47.744;7.358;2023-07-24T13:52:00;22.90;99.90
37310;DHT22;23195;47.744;7.358;2023-07-24T13:54:25;23.10;99.90
37310;DHT22;23195;47.744;7.358;2023-07-24T13:56:52;23.30;99.90
37310;DHT22;23195;47.744;7.358;2023-07-24T13:59:17;23.50;99.90
37310;DHT22;23195;47.744;7.358;2023-07-24T14:01:45;23.80;99.90
37310;DHT22;23195;47.744;7.358;2023-07-24T14:04:11;23.90;99.90
37310;DHT22;23195;47.744;7.358;2023-07-24T14:06:37;24.00;99.90
37310;DHT22;23195;47.744;7.358;2023-07-24T14:09:03;24.00;99.90
37310;DHT22;23195;47.744;7.358;2023-07-24T14:11:29;24.10;99.90
37310;DHT22;23195;47.744;7.358;2023-07-24T14:13:55;24.10;99.90
37310;DHT22;23195;47.744;7.358;2023-07-24T14:16:21;24.20;99.90
37310;DHT22;23195;47.744;7.358;2023-07-24T14:18:47;24.20;99.90
37310;DHT22;23195;47.744;7.358;2023-07-24T14:21:16;24.40;99.90
37310;DHT22;23195;47.744;7.358;2023-07-24T14:23:42;24.20;99.90
37310;DHT22;23195;47.744;7.358;2023-07-24T14:26:08;23.90;99.90
37310;DHT22;23195;47.744;7.358;2023-07-24T14:28:34;24.30;99.90
37310;DHT22;23195;47.744;7.358;2023-07-24T14:30:59;24.50;99.90
37310;DHT22;23195;47.744;7.358;2023-07-24T14:33:25;24.60;99.90
37310;DHT22;23195;47.744;7.358;2023-07-24T14:35:52;24.60;99.90
37310;DHT22;23195;47.744;7.358;2023-07-24T14:38:17;24.60;99.90
37310;DHT22;23195;47.744;7.358;2023-07-24T14:40:53;24.60;99.90
37310;DHT22;23195;47.744;7.358;2023-07-24T14:43:22;24.40;99.90
37310;DHT22;23195;47.744;7.358;2023-07-24T14:45:48;24.30;99.90
37310;DHT22;23195;47.744;7.358;2023-07-24T14:48:13;24.30;99.90
37310;DHT22;23195;47.744;7.358;2023-07-24T14:50:42;24.30;99.90
37310;DHT22;23195;47.744;7.358;2023-07-24T14:53:08;24.40;99.90
37310;DHT22;23195;47.744;7.358;2023-07-24T14:55:34;24.50;99.90
37310;DHT22;23195;47.744;7.358;2023-07-24T14:57:59;24.60;99.90
37310;DHT22;23195;47.744;7.358;2023-07-24T15:00:31;24.60;99.90
37310;DHT22;23195;47.744;7.358;2023-07-24T15:03:00;24.70;99.90
37310;DHT22;23195;47.744;7.358;2023-07-24T15:05:26;24.70;99.90
37310;DHT22;23195;47.744;7.358;2023-07-24T15:07:52;24.60;99.90
37310;DHT22;23195;47.744;7.358;2023-07-24T15:10:18;24.60;99.90
37310;DHT22;23195;47.744;7.358;2023-07-24T15:12:47;24.60;99.90
37310;DHT22;23195;47.744;7.358;2023-07-24T15:15:13;24.50;99.90
37310;DHT22;23195;47.744;7.358;2023-07-24T15:17:38;24.40;99.90
37310;DHT22;23195;47.744;7.358;2023-07-24T15:20:07;24.40;99.90
37310;DHT22;23195;47.744;7.358;2023-07-24T15:22:34;24.50;99.90
37310;DHT22;23195;47.744;7.358;2023-07-24T15:25:00;24.60;99.90
37310;DHT22;23195;47.744;7.358;2023-07-24T15:27:26;24.70;99.90
37310;DHT22;23195;47.744;7.358;2023-07-24T15:29:52;24.60;99.90
37310;DHT22;23195;47.744;7.358;2023-07-24T15:32:17;24.40;99.90
37310;DHT22;23195;47.744;7.358;2023-07-24T15:34:43;24.40;99.90
37310;DHT22;23195;47.744;7.358;2023-07-24T15:37:12;24.40;99.90
37310;DHT22;23195;47.744;7.358;2023-07-24T15:39:38;24.40;99.90
37310;DHT22;23195;47.744;7.358;2023-07-24T15:42:04;24.40;99.90
37310;DHT22;23195;47.744;7.358;2023-07-24T15:44:30;24.40;99.90
37310;DHT22;23195;47.744;7.358;2023-07-24T15:46:55;24.40;99.90
37310;DHT22;23195;47.744;7.358;2023-07-24T15:49:24;24.60;99.90
37310;DHT22;23195;47.744;7.358;2023-07-24T15:51:53;24.70;99.90
37310;DHT22;23195;47.744;7.358;2023-07-24T15:54:19;24.90;99.90
37310;DHT22;23195;47.744;7.358;2023-07-24T15:56:45;25.10;99.90
37310;DHT22;23195;47.744;7.358;2023-07-24T15:59:11;25.30;99.90
37310;DHT22;23195;47.744;7.358;2023-07-24T16:01:36;25.20;99.90
37310;DHT22;23195;47.744;7.358;2023-07-24T16:04:06;25.20;99.90
37310;DHT22;23195;47.744;7.358;2023-07-24T16:06:32;25.30;99.90
37310;DHT22;23195;47.744;7.358;2023-07-24T16:08:58;25.40;99.90
37310;DHT22;23195;47.744;7.358;2023-07-24T16:11:26;25.50;99.90
37310;DHT22;23195;47.744;7.358;2023-07-24T16:13:51;25.40;99.90
37310;DHT22;23195;47.744;7.358;2023-07-24T16:16:20;25.20;99.90
37310;DHT22;23195;47.744;7.358;2023-07-24T16:18:46;25.10;99.90
37310;DHT22;23195;47.744;7.358;2023-07-24T16:21:12;25.20;99.90
37310;DHT22;23195;47.744;7.358;2023-07-24T16:23:38;25.30;99.90
37310;DHT22;23195;47.744;7.358;2023-07-24T16:26:03;25.10;99.90
37310;DHT22;23195;47.744;7.358;2023-07-24T16:28:32;25.20;99.90
37310;DHT22;23195;47.744;7.358;2023-07-24T16:30:58;25.10;99.90
37310;DHT22;23195;47.744;7.358;2023-07-24T16:33:24;24.80;99.90
37310;DHT22;23195;47.744;7.358;2023-07-24T16:35:51;25.10;99.90
37310;DHT22;23195;47.744;7.358;2023-07-24T16:38:16;25.10;99.90
37310;DHT22;23195;47.744;7.358;2023-07-24T16:40:42;25.20;99.90
37310;DHT22;23195;47.744;7.358;2023-07-24T16:43:12;25.20;99.90
37310;DHT22;23195;47.744;7.358;2023-07-24T16:45:38;25.20;99.90
37310;DHT22;23195;47.744;7.358;2023-07-24T16:48:04;25.30;99.90
37310;DHT22;23195;47.744;7.358;2023-07-24T16:50:30;25.40;99.90
37310;DHT22;23195;47.744;7.358;2023-07-24T16:52:58;25.40;99.90
37310;DHT22;23195;47.744;7.358;2023-07-24T16:55:24;25.30;99.90
37310;DHT22;23195;47.744;7.358;2023-07-24T16:57:49;25.20;99.90
37310;DHT22;23195;47.744;7.358;2023-07-24T17:00:15;25.10;99.90
37310;DHT22;23195;47.744;7.358;2023-07-24T17:02:41;24.90;99.90
37310;DHT22;23195;47.744;7.358;2023-07-24T17:05:07;24.80;99.90
37310;DHT22;23195;47.744;7.358;2023-07-24T17:07:36;24.90;99.90
37310;DHT22;23195;47.744;7.358;2023-07-24T17:10:02;24.80;99.90
37310;DHT22;23195;47.744;7.358;2023-07-24T17:12:28;24.90;99.90
37310;DHT22;23195;47.744;7.358;2023-07-24T17:14:54;24.80;99.90
37310;DHT22;23195;47.744;7.358;2023-07-24T17:17:21;24.60;99.90
37310;DHT22;23195;47.744;7.358;2023-07-24T17:19:46;24.60;99.90
37310;DHT22;23195;47.744;7.358;2023-07-24T17:22:15;24.50;99.90
37310;DHT22;23195;47.744;7.358;2023-07-24T17:24:41;24.30;99.90
37310;DHT22;23195;47.744;7.358;2023-07-24T17:27:08;24.40;99.90
37310;DHT22;23195;47.744;7.358;2023-07-24T17:29:35;24.50;99.90
37310;DHT22;23195;47.744;7.358;2023-07-24T17:32:01;24.60;99.90
37310;DHT22;23195;47.744;7.358;2023-07-24T17:34:30;24.60;99.90
37310;DHT22;23195;47.744;7.358;2023-07-24T17:36:56;24.70;99.90
37310;DHT22;23195;47.744;7.358;2023-07-24T17:39:24;24.60;99.90
37310;DHT22;23195;47.744;7.358;2023-07-24T17:41:50;24.60;99.90
37310;DHT22;23195;47.744;7.358;2023-07-24T17:44:19;24.60;99.90
37310;DHT22;23195;47.744;7.358;2023-07-24T17:46:45;24.40;99.90
37310;DHT22;23195;47.744;7.358;2023-07-24T17:49:11;24.30;99.90
37310;DHT22;23195;47.744;7.358;2023-07-24T17:51:39;24.20;99.90
37310;DHT22;23195;47.744;7.358;2023-07-24T17:54:05;24.10;99.90
37310;DHT22;23195;47.744;7.358;2023-07-24T17:56:31;23.90;99.90
37310;DHT22;23195;47.744;7.358;2023-07-24T17:58:57;23.90;99.90
37310;DHT22;23195;47.744;7.358;2023-07-24T18:01:26;23.80;99.90
37310;DHT22;23195;47.744;7.358;2023-07-24T18:03:51;23.80;99.90
37310;DHT22;23195;47.744;7.358;2023-07-24T18:06:17;23.80;99.90
37310;DHT22;23195;47.744;7.358;2023-07-24T18:08:43;23.70;99.90
37310;DHT22;23195;47.744;7.358;2023-07-24T18:11:09;23.70;99.90
37310;DHT22;23195;47.744;7.358;2023-07-24T18:13:38;23.70;99.90
37310;DHT22;23195;47.744;7.358;2023-07-24T18:16:07;23.70;99.90
37310;DHT22;23195;47.744;7.358;2023-07-24T18:18:33;23.60;99.90
37310;DHT22;23195;47.744;7.358;2023-07-24T18:20:59;23.50;99.90
37310;DHT22;23195;47.744;7.358;2023-07-24T18:23:29;23.50;99.90
37310;DHT22;23195;47.744;7.358;2023-07-24T18:25:58;23.50;99.90
37310;DHT22;23195;47.744;7.358;2023-07-24T18:28:27;23.60;99.90
37310;DHT22;23195;47.744;7.358;2023-07-24T18:30:53;23.40;99.90
37310;DHT22;23195;47.744;7.358;2023-07-24T18:33:20;23.40;99.90
37310;DHT22;23195;47.744;7.358;2023-07-24T18:35:45;23.30;99.90
37310;DHT22;23195;47.744;7.358;2023-07-24T18:38:11;23.20;99.90
37310;DHT22;23195;47.744;7.358;2023-07-24T18:40:38;23.20;99.90
37310;DHT22;23195;47.744;7.358;2023-07-24T18:43:03;23.10;99.90
37310;DHT22;23195;47.744;7.358;2023-07-24T18:45:29;23.10;99.90
37310;DHT22;23195;47.744;7.358;2023-07-24T18:47:55;23.00;99.90
37310;DHT22;23195;47.744;7.358;2023-07-24T18:50:23;22.90;99.90
37310;DHT22;23195;47.744;7.358;2023-07-24T18:52:49;22.80;99.90
37310;DHT22;23195;47.744;7.358;2023-07-24T18:55:15;22.60;99.90
37310;DHT22;23195;47.744;7.358;2023-07-24T18:57:40;22.60;99.90
37310;DHT22;23195;47.744;7.358;2023-07-24T19:00:09;22.60;99.90
37310;DHT22;23195;47.744;7.358;2023-07-24T19:02:35;22.30;99.90
37310;DHT22;23195;47.744;7.358;2023-07-24T19:05:01;22.20;99.90
37310;DHT22;23195;47.744;7.358;2023-07-24T19:07:27;22.30;99.90
37310;DHT22;23195;47.744;7.358;2023-07-24T19:09:53;22.20;99.90
37310;DHT22;23195;47.744;7.358;2023-07-24T19:12:19;22.20;99.90
37310;DHT22;23195;47.744;7.358;2023-07-24T19:14:44;22.10;99.90
37310;DHT22;23195;47.744;7.358;2023-07-24T19:17:16;22.00;99.90
37310;DHT22;23195;47.744;7.358;2023-07-24T19:19:42;21.90;99.90
37310;DHT22;23195;47.744;7.358;2023-07-24T19:22:10;21.80;99.90
37310;DHT22;23195;47.744;7.358;2023-07-24T19:24:43;21.70;99.90
37310;DHT22;23195;47.744;7.358;2023-07-24T19:27:09;21.60;99.90
37310;DHT22;23195;47.744;7.358;2023-07-24T19:29:35;21.50;99.90
37310;DHT22;23195;47.744;7.358;2023-07-24T19:32:01;21.30;99.90
37310;DHT22;23195;47.744;7.358;2023-07-24T19:34:27;21.30;99.90
37310;DHT22;23195;47.744;7.358;2023-07-24T19:36:53;21.10;99.90
37310;DHT22;23195;47.744;7.358;2023-07-24T19:39:21;21.10;99.90
37310;DHT22;23195;47.744;7.358;2023-07-24T19:41:47;21.00;99.90
37310;DHT22;23195;47.744;7.358;2023-07-24T19:44:23;20.80;99.90
37310;DHT22;23195;47.744;7.358;2023-07-24T19:46:49;20.20;99.90
37310;DHT22;23195;47.744;7.358;2023-07-24T19:49:15;20.30;99.90
37310;DHT22;23195;47.744;7.358;2023-07-24T19:51:41;20.70;99.90
37310;DHT22;23195;47.744;7.358;2023-07-24T19:54:26;20.70;99.90
37310;DHT22;23195;47.744;7.358;2023-07-24T19:56:54;20.60;99.90
37310;DHT22;23195;47.744;7.358;2023-07-24T19:59:24;20.60;99.90
37310;DHT22;23195;47.744;7.358;2023-07-24T20:01:57;20.70;99.90
37310;DHT22;23195;47.744;7.358;2023-07-24T20:04:31;20.70;99.90
37310;DHT22;23195;47.744;7.358;2023-07-24T20:07:03;20.70;99.90
37310;DHT22;23195;47.744;7.358;2023-07-24T20:09:33;20.70;99.90
37310;DHT22;23195;47.744;7.358;2023-07-24T20:12:14;20.60;99.90
37310;DHT22;23195;47.744;7.358;2023-07-24T20:15:01;20.60;99.90
37310;DHT22;23195;47.744;7.358;2023-07-24T20:17:29;20.50;99.90
37310;DHT22;23195;47.744;7.358;2023-07-24T20:19:57;20.40;99.90
37310;DHT22;23195;47.744;7.358;2023-07-24T20:22:43;20.30;99.90
37310;DHT22;23195;47.744;7.358;2023-07-24T20:25:10;20.20;99.90
37310;DHT22;23195;47.744;7.358;2023-07-24T20:27:46;20.00;99.90
37310;DHT22;23195;47.744;7.358;2023-07-24T20:30:20;20.00;99.90
37310;DHT22;23195;47.744;7.358;2023-07-24T20:32:48;19.90;99.90
37310;DHT22;23195;47.744;7.358;2023-07-24T20:35:16;19.80;99.90
37310;DHT22;23195;47.744;7.358;2023-07-24T20:37:45;19.80;99.90
37310;DHT22;23195;47.744;7.358;2023-07-24T20:40:12;19.70;99.90
37310;DHT22;23195;47.744;7.358;2023-07-24T20:42:45;19.70;99.90
37310;DHT22;23195;47.744;7.358;2023-07-24T20:45:13;19.50;99.90
37310;DHT22;23195;47.744;7.358;2023-07-24T20:47:39;19.70;99.90
37310;DHT22;23195;47.744;7.358;2023-07-24T20:50:08;19.40;99.90
37310;DHT22;23195;47.744;7.358;2023-07-24T20:52:34;19.40;99.90
37310;DHT22;23195;47.744;7.358;2023-07-24T20:55:09;19.40;99.90
37310;DHT22;23195;47.744;7.358;2023-07-24T20:57:48;19.30;99.90
37310;DHT22;23195;47.744;7.358;2023-07-24T21:03:35;19.30;99.90